Time;durP1;ratioP1;P1;durP2;ratioP2;P2;SDS_P1;SDS_P2;PMS_P1;PMS_P2;Temp;Humidity;BMP_temperature;BMP_pressure;BME280_temperature;BME280_humidity;BME280_pressure;Samples;Min_cycle;Max_cycle;Signal;HPM_P1;HPM_P2
2021/04/30 00:00:09;;;;;;;35.57;30.60;;;7.70;90.30;;;;;;5036758;28;20211;-89
2021/04/30 00:02:37;;;;;;;36.67;29.33;;;7.70;90.20;;;;;;5055571;28;20680;-89
2021/04/30 00:05:04;;;;;;;33.17;29.00;;;7.70;90.40;;;;;;5056802;28;20172;-89
2021/04/30 00:07:29;;;;;;;36.43;29.73;;;7.60;90.20;;;;;;5056034;28;20207;-89
2021/04/30 00:09:55;;;;;;;33.60;29.97;;;7.70;90.20;;;;;;5055503;28;20200;-88
2021/04/30 00:12:21;;;;;;;34.73;28.73;;;7.70;90.00;;;;;;5055449;28;20314;-88
2021/04/30 00:14:47;;;;;;;36.43;29.37;;;7.60;90.00;;;;;;5056634;28;20179;-89
2021/04/30 00:17:12;;;;;;;33.90;29.73;;;7.60;90.20;;;;;;5056585;28;20190;-88
2021/04/30 00:19:38;;;;;;;35.70;31.07;;;7.60;90.10;;;;;;5055339;28;20180;-89
2021/04/30 00:22:03;;;;;;;34.43;30.73;;;7.60;90.10;;;;;;5055049;28;20211;-89
2021/04/30 00:24:29;;;;;;;36.00;30.33;;;7.60;90.10;;;;;;5055284;28;20242;-89
2021/04/30 00:26:55;;;;;;;36.07;31.23;;;7.60;90.10;;;;;;5055225;28;20179;-90
2021/04/30 00:29:21;;;;;;;36.93;31.90;;;7.60;90.00;;;;;;5055184;28;20275;-89
2021/04/30 00:31:48;;;;;;;35.53;31.53;;;7.50;90.10;;;;;;5055126;28;20229;-89
2021/04/30 00:34:13;;;;;;;35.33;31.07;;;7.60;90.10;;;;;;5055137;28;20187;-89
2021/04/30 00:36:39;;;;;;;38.03;30.93;;;7.60;90.10;;;;;;5056612;28;20184;-89
2021/04/30 00:39:05;;;;;;;35.73;31.47;;;7.60;90.20;;;;;;5055010;28;20550;-90
2021/04/30 00:41:32;;;;;;;39.80;33.00;;;7.60;90.20;;;;;;5056392;28;20175;-89
2021/04/30 00:44:06;;;;;;;36.27;31.83;;;7.60;90.30;;;;;;5054757;28;20688;-89
2021/04/30 00:46:32;;;;;;;36.87;31.40;;;7.60;90.00;;;;;;5056231;28;20183;-90
2021/04/30 00:48:58;;;;;;;38.13;33.07;;;7.60;90.00;;;;;;5054829;28;20229;-89
2021/04/30 00:51:24;;;;;;;39.77;32.30;;;7.60;89.90;;;;;;5055919;28;20186;-89
2021/04/30 00:53:50;;;;;;;39.47;33.60;;;7.60;90.10;;;;;;5054751;28;20187;-90
2021/04/30 00:56:16;;;;;;;42.27;33.87;;;7.50;90.30;;;;;;5054726;28;20660;-89
2021/04/30 00:58:42;;;;;;;39.67;34.47;;;7.50;90.20;;;;;;5054730;28;20190;-90
2021/04/30 01:01:08;;;;;;;36.93;32.03;;;7.60;90.00;;;;;;5054601;28;20183;-89
2021/04/30 01:03:35;;;;;;;35.77;30.90;;;7.60;90.10;;;;;;5055668;28;20195;-90
2021/04/30 01:06:01;;;;;;;38.60;32.30;;;7.60;89.90;;;;;;5054575;28;20713;-89
2021/04/30 01:08:27;;;;;;;36.60;32.30;;;7.60;89.80;;;;;;5054369;28;20207;-89
2021/04/30 01:10:53;;;;;;;37.13;30.80;;;7.50;89.80;;;;;;5054090;28;20215;-89
2021/04/30 01:13:18;;;;;;;41.07;32.40;;;7.50;90.00;;;;;;5054289;28;20203;-89
2021/04/30 01:15:44;;;;;;;39.03;33.00;;;7.50;90.10;;;;;;5054424;28;20187;-90
2021/04/30 01:18:09;;;;;;;37.27;32.07;;;7.50;90.20;;;;;;5054532;28;20206;-90
2021/04/30 01:20:35;;;;;;;41.07;32.73;;;7.60;90.10;;;;;;5055622;28;20192;-89
2021/04/30 01:23:01;;;;;;;35.87;31.73;;;7.60;90.00;;;;;;5055215;28;20221;-89
2021/04/30 01:25:29;;;;;;;38.23;34.00;;;7.60;89.90;;;;;;5054125;28;20270;-89
2021/04/30 01:27:55;;;;;;;40.00;34.07;;;7.60;89.80;;;;;;5055638;28;20176;-89
2021/04/30 01:30:27;;;;;;;39.57;33.40;;;7.60;89.80;;;;;;5054586;28;20183;-90
2021/04/30 01:32:54;;;;;;;39.97;32.80;;;7.50;89.80;;;;;;5054083;28;20215;-89
2021/04/30 01:35:35;;;;;;;37.47;33.20;;;7.60;89.60;;;;;;5054348;28;20752;-90
2021/04/30 01:38:03;;;;;;;36.73;31.40;;;7.50;89.60;;;;;;5054766;28;20218;-89
2021/04/30 01:40:34;;;;;;;43.03;33.33;;;7.60;89.90;;;;;;5054983;28;20204;-89
2021/04/30 01:43:20;;;;;;;36.57;31.83;;;7.50;89.70;;;;;;5054965;28;20211;-89
2021/04/30 01:45:52;;;;;;;36.27;32.47;;;7.60;89.80;;;;;;5053962;28;20179;-89
2021/04/30 01:48:20;;;;;;;35.67;31.67;;;7.50;89.70;;;;;;5053725;28;20604;-89
2021/04/30 01:50:46;;;;;;;35.60;31.70;;;7.60;89.40;;;;;;5053594;28;20267;-89
2021/04/30 01:53:15;;;;;;;42.60;31.90;;;7.60;89.60;;;;;;5053910;28;20282;-89
2021/04/30 01:55:42;;;;;;;37.43;32.47;;;7.50;89.80;;;;;;5053526;28;20195;-89
2021/04/30 01:58:08;;;;;;;39.07;32.60;;;7.50;89.80;;;;;;5053543;28;20179;-90
2021/04/30 02:00:34;;;;;;;39.10;32.40;;;7.50;89.90;;;;;;5053463;28;20183;-89
2021/04/30 02:03:00;;;;;;;37.03;31.97;;;7.40;89.80;;;;;;5053341;28;20283;-89
2021/04/30 02:05:29;;;;;;;36.60;31.27;;;7.40;89.60;;;;;;5053370;28;20183;-89
2021/04/30 02:07:58;;;;;;;33.70;30.00;;;7.50;89.40;;;;;;5053459;28;20276;-89
2021/04/30 02:10:25;;;;;;;36.70;30.93;;;7.40;89.00;;;;;;5053352;28;20186;-89
2021/04/30 02:12:53;;;;;;;38.20;30.30;;;7.40;89.00;;;;;;5054405;28;20207;-90
2021/04/30 02:15:22;;;;;;;36.77;32.33;;;7.30;89.10;;;;;;5053209;28;20180;-90
2021/04/30 02:17:47;;;;;;;36.63;30.83;;;7.20;89.20;;;;;;5053171;28;20223;-89
2021/04/30 02:20:16;;;;;;;35.63;31.10;;;7.30;89.20;;;;;;5053206;28;20229;-89
2021/04/30 02:22:42;;;;;;;39.03;31.47;;;7.20;88.90;;;;;;5053116;28;20218;-89
2021/04/30 02:25:10;;;;;;;35.33;31.17;;;7.20;88.90;;;;;;5052989;28;20183;-89
2021/04/30 02:27:36;;;;;;;36.77;31.07;;;7.10;88.60;;;;;;5052954;28;20184;-89
2021/04/30 02:30:03;;;;;;;38.80;31.77;;;7.00;88.90;;;;;;5054166;28;20185;-90
2021/04/30 02:32:30;;;;;;;39.17;31.27;;;7.00;88.70;;;;;;5052766;28;20199;-89
2021/04/30 02:34:57;;;;;;;39.43;32.13;;;6.90;88.80;;;;;;5052809;28;20190;-89
2021/04/30 02:37:25;;;;;;;39.27;32.87;;;6.80;88.80;;;;;;5053086;28;20249;-89
2021/04/30 02:39:51;;;;;;;41.97;31.00;;;6.80;89.00;;;;;;5052758;28;20614;-89
2021/04/30 02:42:17;;;;;;;37.93;32.57;;;6.80;88.60;;;;;;5052505;28;20226;-89
2021/04/30 02:44:44;;;;;;;39.33;33.30;;;6.60;88.80;;;;;;5054036;28;20171;-89
2021/04/30 02:47:11;;;;;;;38.40;31.57;;;6.70;89.00;;;;;;5052552;28;20174;-89
2021/04/30 02:49:40;;;;;;;40.13;32.17;;;6.70;88.70;;;;;;5052576;28;20209;-89
2021/04/30 02:52:07;;;;;;;40.40;34.40;;;6.60;88.50;;;;;;5053928;28;20181;-89
2021/04/30 02:54:33;;;;;;;36.97;31.47;;;6.50;88.70;;;;;;5052451;28;20722;-89
2021/04/30 02:56:59;;;;;;;36.40;31.50;;;6.50;88.90;;;;;;5053674;28;20254;-89
2021/04/30 02:59:25;;;;;;;36.37;30.30;;;6.60;88.60;;;;;;5052374;28;20232;-89
2021/04/30 03:01:50;;;;;;;38.80;31.00;;;6.60;88.10;;;;;;5053497;28;20197;-89
2021/04/30 03:04:16;;;;;;;37.83;30.80;;;6.40;88.10;;;;;;5053439;28;20216;-89
2021/04/30 03:06:42;;;;;;;35.67;29.73;;;6.40;88.30;;;;;;5052540;28;20258;-89
2021/04/30 03:09:07;;;;;;;35.93;31.53;;;6.30;88.20;;;;;;5053458;28;20265;-89
2021/04/30 03:11:33;;;;;;;39.70;30.23;;;6.20;88.30;;;;;;5053329;28;20233;-90
2021/04/30 03:13:58;;;;;;;35.30;30.23;;;6.30;88.70;;;;;;5052293;28;20179;-89
2021/04/30 03:16:24;;;;;;;37.17;30.63;;;6.20;88.70;;;;;;5052116;28;20204;-89
2021/04/30 03:18:50;;;;;;;41.50;32.97;;;6.20;88.70;;;;;;5052147;28;20209;-89
2021/04/30 03:21:15;;;;;;;38.80;31.80;;;6.30;88.60;;;;;;5052135;28;20274;-89
2021/04/30 03:23:41;;;;;;;35.23;30.63;;;6.30;88.80;;;;;;5053019;28;20209;-90
2021/04/30 03:26:07;;;;;;;40.53;30.73;;;6.30;88.70;;;;;;5052056;28;20704;-89
2021/04/30 03:28:32;;;;;;;35.70;31.33;;;6.30;88.80;;;;;;5052035;28;20174;-89
2021/04/30 03:30:58;;;;;;;40.70;32.53;;;6.30;88.80;;;;;;5052036;28;20180;-89
2021/04/30 03:33:23;;;;;;;36.03;30.90;;;6.20;88.90;;;;;;5052877;28;20196;-90
2021/04/30 03:35:49;;;;;;;37.50;30.90;;;6.20;89.00;;;;;;5051979;28;20187;-89
2021/04/30 03:38:15;;;;;;;36.07;31.13;;;6.20;89.20;;;;;;5051901;28;20182;-89
2021/04/30 03:40:40;;;;;;;36.33;30.57;;;6.20;89.10;;;;;;5051909;28;20187;-89
2021/04/30 03:43:06;;;;;;;33.77;30.13;;;6.30;89.20;;;;;;5052902;28;20206;-89
2021/04/30 03:45:31;;;;;;;36.83;30.50;;;6.30;89.10;;;;;;5051810;28;20173;-89
2021/04/30 03:47:57;;;;;;;35.00;31.00;;;6.30;89.20;;;;;;5052745;28;20178;-89
2021/04/30 03:50:23;;;;;;;35.93;30.00;;;6.30;89.20;;;;;;5053040;28;20167;-90
2021/04/30 03:52:49;;;;;;;35.13;31.00;;;6.40;89.00;;;;;;5051698;28;20649;-89
2021/04/30 03:55:15;;;;;;;32.50;28.40;;;6.50;88.70;;;;;;5051865;28;20245;-89
2021/04/30 03:57:41;;;;;;;38.73;32.37;;;6.60;88.70;;;;;;5052210;28;20652;-89
2021/04/30 04:00:07;;;;;;;36.57;31.33;;;6.40;88.60;;;;;;5051768;28;20671;-89
2021/04/30 04:02:33;;;;;;;34.20;29.70;;;6.40;88.80;;;;;;5051759;28;20261;-89
2021/04/30 04:04:58;;;;;;;38.87;29.87;;;6.40;88.90;;;;;;5051848;28;20178;-89
2021/04/30 04:07:24;;;;;;;34.73;30.73;;;6.40;89.10;;;;;;5051757;28;20177;-89
2021/04/30 04:09:49;;;;;;;36.10;32.20;;;6.30;89.20;;;;;;5051692;28;20181;-89
2021/04/30 04:12:15;;;;;;;38.23;31.23;;;6.40;89.30;;;;;;5051564;28;20755;-89
2021/04/30 04:14:41;;;;;;;37.00;30.87;;;6.30;89.20;;;;;;5051649;28;20236;-90
2021/04/30 04:17:07;;;;;;;36.03;31.03;;;6.30;89.20;;;;;;5051653;28;20205;-89
2021/04/30 04:19:32;;;;;;;33.47;28.57;;;6.40;89.40;;;;;;5051488;28;20183;-89
2021/04/30 04:21:58;;;;;;;33.23;29.40;;;6.50;89.00;;;;;;5051685;28;20222;-89
2021/04/30 04:24:23;;;;;;;34.13;30.37;;;6.40;89.00;;;;;;5051780;28;20199;-89
2021/04/30 04:26:49;;;;;;;34.23;29.60;;;6.50;89.00;;;;;;5052670;28;20185;-89
2021/04/30 04:29:15;;;;;;;34.33;30.63;;;6.50;89.00;;;;;;5051505;28;20175;-89
2021/04/30 04:31:40;;;;;;;31.03;27.17;;;6.50;89.00;;;;;;5052145;28;20320;-89
2021/04/30 04:34:06;;;;;;;34.80;30.07;;;6.50;89.00;;;;;;5052697;28;20648;-89
2021/04/30 04:36:33;;;;;;;34.80;29.80;;;6.40;89.20;;;;;;5051490;28;20187;-89
2021/04/30 04:38:58;;;;;;;37.23;30.17;;;6.40;89.30;;;;;;5052586;28;20548;-89
2021/04/30 04:41:24;;;;;;;35.97;30.70;;;6.40;89.40;;;;;;5051250;28;20193;-89
2021/04/30 04:43:50;;;;;;;34.03;30.17;;;6.30;89.50;;;;;;5051744;28;20744;-89
2021/04/30 04:46:16;;;;;;;37.83;30.33;;;6.30;89.70;;;;;;5054557;28;20193;-89
2021/04/30 04:48:41;;;;;;;34.67;29.27;;;6.30;89.80;;;;;;5055266;28;20189;-89
2021/04/30 04:51:07;;;;;;;32.23;28.77;;;6.20;90.10;;;;;;5056043;28;20278;-89
2021/04/30 04:53:32;;;;;;;36.57;30.47;;;6.10;90.30;;;;;;5054719;28;20206;-89
2021/04/30 04:55:58;;;;;;;36.97;30.57;;;6.10;90.50;;;;;;5054756;28;20189;-89
2021/04/30 04:58:24;;;;;;;37.33;30.33;;;6.10;90.80;;;;;;5054666;28;20178;-89
2021/04/30 05:00:49;;;;;;;36.27;30.33;;;6.20;91.00;;;;;;5055951;28;20223;-89
2021/04/30 05:03:15;;;;;;;34.70;30.70;;;6.30;90.90;;;;;;5055771;28;20690;-89
2021/04/30 05:05:40;;;;;;;34.50;29.50;;;6.30;90.90;;;;;;5054841;28;20182;-89
2021/04/30 05:08:06;;;;;;;35.33;29.30;;;6.50;90.90;;;;;;5056084;28;20227;-89
2021/04/30 05:10:32;;;;;;;31.70;28.30;;;6.60;90.80;;;;;;5055671;28;20175;-89
2021/04/30 05:12:58;;;;;;;33.23;28.57;;;6.80;90.20;;;;;;5054354;28;20221;-89
2021/04/30 05:15:24;;;;;;;32.47;28.27;;;6.90;89.60;;;;;;5054331;28;20183;-89
2021/04/30 05:17:50;;;;;;;31.60;28.20;;;6.90;89.40;;;;;;5054227;28;20210;-89
2021/04/30 05:20:15;;;;;;;30.93;26.80;;;6.90;89.20;;;;;;5054334;28;20340;-89
2021/04/30 05:22:43;;;;;;;32.53;29.10;;;6.90;89.00;;;;;;5054299;28;20252;-89
2021/04/30 05:25:10;;;;;;;33.17;28.73;;;6.80;88.80;;;;;;5055376;28;20174;-89
2021/04/30 05:27:36;;;;;;;33.60;30.03;;;6.70;88.80;;;;;;5055428;28;20290;-89
2021/04/30 05:30:03;;;;;;;34.17;30.33;;;6.70;89.00;;;;;;5055490;28;20183;-89
2021/04/30 05:32:28;;;;;;;32.77;29.13;;;6.70;89.10;;;;;;5054020;28;20329;-89
2021/04/30 05:34:56;;;;;;;31.50;28.10;;;6.80;89.10;;;;;;5055535;28;20199;-89
2021/04/30 05:37:22;;;;;;;31.80;28.40;;;6.80;89.00;;;;;;5055127;28;20187;-89
2021/04/30 05:39:48;;;;;;;31.17;27.83;;;6.90;89.00;;;;;;5054021;28;20176;-89
2021/04/30 05:42:13;;;;;;;32.10;28.43;;;6.90;88.90;;;;;;5054935;28;20261;-89
2021/04/30 05:44:39;;;;;;;29.57;26.37;;;7.00;88.80;;;;;;5054249;28;20719;-89
2021/04/30 05:47:05;;;;;;;30.50;27.33;;;7.10;88.80;;;;;;5053869;28;20260;-89
2021/04/30 05:49:30;;;;;;;32.17;27.33;;;7.10;88.60;;;;;;5053768;28;20643;-89
2021/04/30 05:51:56;;;;;;;30.33;27.13;;;7.10;88.70;;;;;;5053634;28;20218;-89
2021/04/30 05:54:22;;;;;;;32.63;29.07;;;7.10;88.70;;;;;;5054821;28;20270;-89
2021/04/30 05:56:47;;;;;;;32.20;28.30;;;7.20;88.90;;;;;;5053496;28;20728;-89
2021/04/30 05:59:13;;;;;;;30.67;26.07;;;7.30;89.50;;;;;;5054778;28;20176;-90
2021/04/30 06:01:39;;;;;;;29.27;24.53;;;7.30;89.30;;;;;;5054967;28;20270;-89
2021/04/30 06:04:05;;;;;;;32.30;26.67;;;7.30;89.00;;;;;;5053403;28;20570;-89
2021/04/30 06:06:30;;;;;;;27.40;24.40;;;7.30;88.80;;;;;;5054943;28;20187;-89
2021/04/30 06:08:56;;;;;;;28.13;23.73;;;7.30;88.90;;;;;;5053316;28;20270;-89
2021/04/30 06:11:22;;;;;;;28.50;25.50;;;7.40;89.00;;;;;;5054509;28;20195;-90
2021/04/30 06:13:47;;;;;;;28.50;25.40;;;7.50;88.90;;;;;;5054453;28;20172;-89
2021/04/30 06:16:13;;;;;;;27.67;24.67;;;7.50;88.90;;;;;;5054412;28;20555;-89
2021/04/30 06:18:39;;;;;;;29.53;25.43;;;7.60;89.00;;;;;;5053102;28;20253;-89
2021/04/30 06:21:04;;;;;;;31.03;24.43;;;7.70;89.10;;;;;;5054670;28;20168;-89
2021/04/30 06:23:30;;;;;;;30.30;25.03;;;7.80;89.00;;;;;;5052745;28;20219;-89
2021/04/30 06:25:56;;;;;;;29.17;25.63;;;7.90;88.90;;;;;;5054234;28;20246;-89
2021/04/30 06:28:21;;;;;;;26.87;23.93;;;7.90;88.90;;;;;;5052922;28;20198;-90
2021/04/30 06:30:47;;;;;;;25.80;23.10;;;7.90;88.50;;;;;;5052983;28;20172;-90
2021/04/30 06:33:13;;;;;;;22.27;19.97;;;8.00;87.80;;;;;;5052829;28;20195;-90
2021/04/30 06:35:38;;;;;;;23.67;21.23;;;8.10;86.50;;;;;;5052978;28;20194;-90
2021/04/30 06:38:04;;;;;;;24.57;22.03;;;8.30;86.60;;;;;;5052960;28;20211;-91
2021/04/30 06:40:30;;;;;;;25.80;23.17;;;8.30;86.50;;;;;;5052835;28;20175;-90
2021/04/30 06:42:56;;;;;;;26.20;22.57;;;8.40;86.90;;;;;;5052620;28;20211;-90
2021/04/30 06:45:22;;;;;;;25.03;22.10;;;8.50;87.00;;;;;;5053277;28;20226;-90
2021/04/30 06:47:48;;;;;;;25.93;23.20;;;8.50;87.00;;;;;;5052598;28;20175;-90
2021/04/30 06:50:14;;;;;;;27.47;21.53;;;8.60;86.40;;;;;;5052811;28;20176;-90
2021/04/30 06:52:39;;;;;;;26.00;20.73;;;8.60;84.90;;;;;;5052648;28;20226;-89
2021/04/30 06:55:07;;;;;;;24.93;22.40;;;8.60;84.30;;;;;;5053740;28;20175;-89
2021/04/30 06:57:32;;;;;;;23.43;21.00;;;8.60;84.80;;;;;;5052390;28;20623;-89
2021/04/30 06:59:58;;;;;;;24.73;22.23;;;8.60;85.10;;;;;;5052380;28;20203;-89
2021/04/30 07:02:24;;;;;;;24.30;21.73;;;8.60;85.60;;;;;;5052857;28;20669;-89
2021/04/30 07:04:49;;;;;;;24.87;22.27;;;8.60;85.80;;;;;;5052689;28;20176;-89
2021/04/30 07:07:15;;;;;;;23.00;19.73;;;8.60;85.20;;;;;;5052681;28;20172;-89
2021/04/30 07:09:41;;;;;;;22.47;18.87;;;8.60;84.60;;;;;;5051797;28;20543;-89
2021/04/30 07:12:08;;;;;;;21.13;19.00;;;8.60;83.30;;;;;;5052159;28;20199;-89
2021/04/30 07:14:34;;;;;;;23.40;21.10;;;8.60;83.60;;;;;;5053423;28;20176;-89
2021/04/30 07:17:01;;;;;;;23.73;21.23;;;8.60;84.10;;;;;;5052120;28;20279;-89
2021/04/30 07:19:27;;;;;;;24.67;22.17;;;8.70;85.00;;;;;;5052102;28;20168;-88
2021/04/30 07:21:53;;;;;;;23.37;20.93;;;8.80;84.90;;;;;;5053075;28;20824;-89
2021/04/30 07:24:18;;;;;;;20.50;18.27;;;8.80;85.30;;;;;;5052006;28;20200;-89
2021/04/30 07:26:44;;;;;;;25.90;20.50;;;8.80;83.70;;;;;;5052011;28;20172;-89
2021/04/30 07:29:10;;;;;;;22.30;19.90;;;8.80;83.50;;;;;;5052428;28;20349;-89
2021/04/30 07:31:36;;;;;;;23.70;21.27;;;9.00;84.40;;;;;;5051994;28;20225;-89
2021/04/30 07:34:02;;;;;;;21.53;19.23;;;9.00;84.20;;;;;;5052098;28;20591;-89
2021/04/30 07:36:28;;;;;;;25.23;20.27;;;8.90;83.90;;;;;;5052202;28;20183;-89
2021/04/30 07:38:53;;;;;;;23.30;20.10;;;9.10;84.10;;;;;;5051897;28;20208;-89
2021/04/30 07:41:19;;;;;;;22.10;20.00;;;9.20;83.50;;;;;;5052996;28;20172;-89
2021/04/30 07:43:44;;;;;;;19.43;17.07;;;9.30;83.80;;;;;;5051889;28;20249;-89
2021/04/30 07:46:10;;;;;;;21.10;18.90;;;9.20;81.50;;;;;;5053380;28;20152;-89
2021/04/30 07:48:36;;;;;;;20.90;18.73;;;9.20;82.70;;;;;;5051821;28;20177;-89
2021/04/30 07:51:02;;;;;;;19.87;17.87;;;9.20;81.80;;;;;;5051763;28;20178;-89
2021/04/30 07:53:30;;;;;;;20.20;18.10;;;9.10;82.20;;;;;;5052960;28;20610;-89
2021/04/30 07:55:56;;;;;;;20.70;18.33;;;9.10;82.20;;;;;;5052958;28;20168;-89
2021/04/30 07:58:25;;;;;;;22.40;18.70;;;9.10;82.40;;;;;;5051672;28;20718;-89
2021/04/30 08:00:52;;;;;;;18.40;16.50;;;9.20;82.30;;;;;;5051677;28;20176;-89
2021/04/30 08:03:19;;;;;;;20.17;15.57;;;9.20;81.40;;;;;;5052769;28;20571;-89
2021/04/30 08:05:45;;;;;;;21.53;17.60;;;9.20;79.90;;;;;;5051626;28;20176;-89
2021/04/30 08:08:11;;;;;;;19.80;17.90;;;9.20;80.80;;;;;;5051644;28;20182;-89
2021/04/30 08:10:36;;;;;;;20.90;18.77;;;9.40;82.00;;;;;;5051627;28;20180;-89
2021/04/30 08:13:02;;;;;;;25.80;17.53;;;9.60;81.90;;;;;;5051508;28;20199;-89
2021/04/30 08:15:27;;;;;;;18.60;16.70;;;9.70;82.50;;;;;;5053058;28;20184;-89
2021/04/30 08:17:53;;;;;;;18.73;15.37;;;9.80;81.50;;;;;;5051572;28;20191;-89
2021/04/30 08:20:19;;;;;;;17.03;13.47;;;9.80;79.60;;;;;;5051830;28;20211;-89
2021/04/30 08:22:44;;;;;;;14.33;12.83;;;9.70;78.40;;;;;;5056424;28;20246;-89
2021/04/30 08:25:11;;;;;;;15.33;13.53;;;9.50;76.80;;;;;;5055293;28;20180;-89
2021/04/30 08:27:37;;;;;;;15.80;14.20;;;9.50;77.70;;;;;;5055332;28;20176;-89
2021/04/30 08:30:04;;;;;;;17.43;15.63;;;9.40;77.90;;;;;;5055198;28;20218;-89
2021/04/30 08:32:29;;;;;;;17.73;15.00;;;9.50;79.00;;;;;;5055107;28;20203;-89
2021/04/30 08:34:55;;;;;;;18.03;16.17;;;9.40;79.60;;;;;;5055169;28;20176;-89
2021/04/30 08:37:21;;;;;;;17.93;16.03;;;9.50;79.30;;;;;;5055054;28;20174;-90
2021/04/30 08:39:46;;;;;;;21.23;16.60;;;9.60;80.00;;;;;;5054974;28;20175;-88
2021/04/30 08:42:16;;;;;;;15.47;13.87;;;9.50;78.70;;;;;;5054853;28;20192;-88
2021/04/30 08:44:42;;;;;;;15.80;14.10;;;9.60;78.90;;;;;;5056060;28;20188;-88
2021/04/30 08:47:07;;;;;;;16.37;14.60;;;9.60;78.10;;;;;;5054842;28;20183;-87
2021/04/30 08:49:34;;;;;;;15.00;13.43;;;9.50;77.40;;;;;;5054742;28;20581;-87
2021/04/30 08:52:00;;;;;;;16.27;14.60;;;9.50;77.80;;;;;;5055936;28;20192;-88
2021/04/30 08:54:25;;;;;;;16.57;14.87;;;9.60;77.70;;;;;;5054697;28;20243;-87
2021/04/30 08:57:00;;;;;;;15.33;13.73;;;9.60;78.00;;;;;;5055855;28;20257;-88
2021/04/30 08:59:26;;;;;;;14.60;13.20;;;9.80;79.20;;;;;;5054609;28;20170;-88
2021/04/30 09:01:53;;;;;;;13.83;12.53;;;9.90;77.30;;;;;;5055749;28;20246;-88
2021/04/30 09:04:18;;;;;;;14.93;13.50;;;9.80;77.80;;;;;;5055629;28;20203;-88
2021/04/30 09:06:45;;;;;;;13.60;12.20;;;9.80;77.00;;;;;;5056003;28;20164;-88
2021/04/30 09:09:16;;;;;;;13.97;11.63;;;9.80;76.20;;;;;;5054391;28;20175;-88
2021/04/30 09:11:45;;;;;;;12.43;10.97;;;10.00;75.70;;;;;;5054333;28;20684;-88
2021/04/30 09:14:30;;;;;;;12.23;11.00;;;10.00;75.20;;;;;;5054332;28;20183;-88
2021/04/30 09:17:00;;;;;;;17.20;11.50;;;10.10;75.30;;;;;;5055589;28;20153;-88
2021/04/30 09:19:30;;;;;;;11.83;10.57;;;10.30;76.00;;;;;;5054147;28;20176;-88
2021/04/30 09:22:01;;;;;;;15.27;10.87;;;10.30;74.80;;;;;;5054005;28;20254;-88
2021/04/30 09:24:27;;;;;;;10.63;9.53;;;10.30;75.10;;;;;;5054081;28;20207;-88
2021/04/30 09:26:53;;;;;;;9.77;8.77;;;10.30;74.80;;;;;;5055340;28;20168;-89
2021/04/30 09:29:20;;;;;;;10.17;9.17;;;10.30;72.20;;;;;;5055433;28;20170;-89
2021/04/30 09:31:48;;;;;;;11.40;10.27;;;10.20;74.00;;;;;;5054821;28;20184;-88
2021/04/30 09:34:44;;;;;;;11.93;10.23;;;10.10;71.70;;;;;;5055430;28;20173;-89
2021/04/30 09:37:12;;;;;;;11.43;10.33;;;10.20;74.10;;;;;;5045998;28;20188;-89
2021/04/30 09:39:56;;;;;;;11.43;10.23;;;10.30;73.50;;;;;;5053976;28;20550;-89
2021/04/30 09:42:25;;;;;;;12.20;10.83;;;10.40;73.80;;;;;;5053801;28;20297;-89
2021/04/30 09:44:54;;;;;;;11.00;9.93;;;10.50;73.40;;;;;;5053790;28;20667;-89
2021/04/30 09:47:24;;;;;;;11.93;10.70;;;10.50;71.30;;;;;;5053883;28;20225;-90
2021/04/30 09:49:52;;;;;;;11.30;10.17;;;10.60;74.00;;;;;;5053660;28;20168;-89
2021/04/30 09:52:19;;;;;;;12.20;11.07;;;10.60;72.00;;;;;;5055140;28;20187;-89
2021/04/30 09:54:46;;;;;;;13.83;12.43;;;10.50;72.80;;;;;;5053637;28;20178;-89
2021/04/30 09:57:19;;;;;;;13.17;11.77;;;10.70;73.20;;;;;;5053913;28;20188;-89
2021/04/30 10:00:00;;;;;;;12.93;11.53;;;10.80;74.30;;;;;;5053576;28;20171;-89
2021/04/30 10:02:26;;;;;;;15.87;12.10;;;10.80;73.10;;;;;;5054175;28;20209;-88
2021/04/30 10:04:54;;;;;;;13.10;11.70;;;10.80;72.90;;;;;;5053470;28;20233;-88
2021/04/30 10:07:33;;;;;;;13.80;12.30;;;11.00;73.80;;;;;;5053300;28;20653;-89
2021/04/30 10:10:09;;;;;;;14.50;13.00;;;11.00;72.90;;;;;;5053856;28;20202;-88
2021/04/30 10:12:37;;;;;;;12.50;11.27;;;11.10;72.70;;;;;;5053222;28;20688;-87
2021/04/30 10:15:04;;;;;;;12.03;10.90;;;11.40;72.30;;;;;;5053051;28;20206;-87
2021/04/30 10:17:29;;;;;;;13.20;10.93;;;11.50;72.60;;;;;;5054369;28;20168;-87
2021/04/30 10:19:55;;;;;;;12.20;11.10;;;11.50;70.80;;;;;;5053042;28;20194;-87
2021/04/30 10:22:27;;;;;;;12.40;11.23;;;11.30;68.80;;;;;;5151607;22;20642;-86
2021/04/30 10:24:55;;;;;;;11.83;10.63;;;11.40;70.00;;;;;;5052897;28;20226;-87
2021/04/30 10:27:25;;;;;;;12.60;11.30;;;11.60;69.90;;;;;;5054135;28;20181;-87
2021/04/30 10:30:13;;;;;;;12.47;11.17;;;11.50;69.50;;;;;;5054129;28;20145;-87
2021/04/30 10:33:10;;;;;;;13.63;11.53;;;11.20;69.30;;;;;;5053990;28;20212;-87
2021/04/30 10:35:49;;;;;;;13.10;11.73;;;11.30;69.50;;;;;;5028559;28;20207;-87
2021/04/30 10:38:21;;;;;;;12.77;11.57;;;11.20;69.10;;;;;;5054310;28;20565;-87
2021/04/30 10:41:02;;;;;;;13.80;11.50;;;11.20;68.70;;;;;;5053821;28;20230;-88
2021/04/30 10:43:29;;;;;;;13.73;11.80;;;11.30;70.80;;;;;;5052156;28;20196;-87
2021/04/30 10:46:06;;;;;;;12.83;11.63;;;11.20;71.10;;;;;;5052511;28;20168;-87
2021/04/30 10:48:33;;;;;;;14.47;12.23;;;11.20;70.50;;;;;;5053680;28;20174;-87
2021/04/30 10:51:13;;;;;;;12.50;11.30;;;11.20;70.20;;;;;;5053654;28;20703;-87
2021/04/30 10:53:40;;;;;;;11.50;10.43;;;11.10;70.00;;;;;;5053562;28;20683;-87
2021/04/30 10:56:35;;;;;;;12.37;11.17;;;11.30;67.90;;;;;;5052648;28;20592;-87
2021/04/30 10:59:01;;;;;;;11.80;10.60;;;11.60;70.10;;;;;;5039631;28;20616;-87
2021/04/30 11:01:34;;;;;;;12.33;11.23;;;11.90;66.30;;;;;;5052222;28;20184;-87
2021/04/30 11:04:13;;;;;;;15.47;11.93;;;12.10;67.40;;;;;;5052580;28;20223;-87
2021/04/30 11:06:44;;;;;;;13.63;10.17;;;12.40;68.00;;;;;;5053321;28;20179;-86
2021/04/30 11:09:19;;;;;;;13.87;11.77;;;12.70;65.30;;;;;;5052170;28;20169;-86
2021/04/30 11:11:45;;;;;;;13.00;10.63;;;12.80;68.30;;;;;;5052030;28;20164;-86
2021/04/30 11:14:38;;;;;;;13.10;11.07;;;13.20;67.30;;;;;;5053228;28;20662;-86
2021/04/30 11:17:05;;;;;;;10.77;9.67;;;13.30;65.50;;;;;;5053218;28;20161;-86
2021/04/30 11:19:32;;;;;;;10.40;9.37;;;13.30;62.50;;;;;;5053191;28;20171;-86
2021/04/30 11:22:14;;;;;;;11.23;9.43;;;13.20;63.50;;;;;;5053052;28;20172;-85
2021/04/30 11:24:46;;;;;;;11.33;10.00;;;12.90;62.20;;;;;;5051981;28;20262;-88
2021/04/30 11:27:11;;;;;;;10.87;9.77;;;12.70;64.60;;;;;;5051824;28;20163;-88
2021/04/30 11:29:40;;;;;;;10.57;9.60;;;12.40;64.80;;;;;;5053395;28;20529;-88
2021/04/30 11:32:26;;;;;;;9.63;8.63;;;12.30;63.70;;;;;;5053045;28;20191;-88
2021/04/30 11:34:58;;;;;;;11.37;9.97;;;12.20;65.20;;;;;;5051752;28;20179;-88
2021/04/30 11:37:25;;;;;;;16.00;10.40;;;12.30;64.20;;;;;;5051868;28;20172;-88
2021/04/30 11:39:55;;;;;;;11.30;10.03;;;12.30;64.10;;;;;;5051686;28;20213;-88
2021/04/30 11:42:27;;;;;;;10.33;9.30;;;12.50;65.10;;;;;;5052823;28;20226;-88
2021/04/30 11:44:53;;;;;;;10.60;9.50;;;12.50;60.00;;;;;;5053178;28;20165;-88
2021/04/30 11:47:26;;;;;;;11.03;10.03;;;12.50;61.10;;;;;;5052866;28;20258;-88
2021/04/30 11:49:54;;;;;;;11.90;10.70;;;12.60;63.20;;;;;;5053532;28;20258;-88
2021/04/30 11:52:30;;;;;;;11.83;10.70;;;12.70;66.00;;;;;;5052235;28;20195;-88
2021/04/30 11:55:07;;;;;;;12.13;10.93;;;12.90;63.70;;;;;;5052951;28;20178;-88
2021/04/30 11:57:32;;;;;;;12.10;10.90;;;13.00;66.60;;;;;;5055540;28;20171;-88
2021/04/30 11:59:58;;;;;;;11.47;10.47;;;13.00;66.10;;;;;;5055504;28;20180;-88
2021/04/30 12:02:26;;;;;;;11.40;10.30;;;13.00;64.20;;;;;;5057273;28;20188;-88
2021/04/30 12:04:55;;;;;;;11.93;10.20;;;12.90;64.40;;;;;;5055388;28;20211;-88
2021/04/30 12:07:26;;;;;;;13.17;11.87;;;12.80;63.60;;;;;;5055453;28;20584;-88
2021/04/30 12:09:53;;;;;;;13.27;11.03;;;12.80;64.20;;;;;;5056962;28;20210;-88
2021/04/30 12:12:29;;;;;;;12.87;11.10;;;12.80;64.00;;;;;;5055312;28;20287;-88
2021/04/30 12:15:07;;;;;;;11.30;10.10;;;12.80;64.70;;;;;;5056092;28;20176;-88
2021/04/30 12:17:38;;;;;;;11.37;10.27;;;12.80;65.50;;;;;;5056578;28;20168;-88
2021/04/30 12:20:11;;;;;;;11.47;10.27;;;13.00;65.50;;;;;;5055730;28;20178;-88
2021/04/30 12:22:52;;;;;;;11.80;10.67;;;12.90;64.10;;;;;;5054917;28;20215;-88
2021/04/30 12:25:39;;;;;;;11.83;10.63;;;12.80;64.10;;;;;;5055110;28;20168;-88
2021/04/30 12:28:28;;;;;;;12.13;10.93;;;12.80;65.00;;;;;;5056423;28;20516;-88
2021/04/30 12:31:15;;;;;;;10.97;9.93;;;12.90;65.00;;;;;;5055134;28;20174;-87
2021/04/30 12:33:40;;;;;;;12.37;11.17;;;12.80;63.80;;;;;;5056570;28;20257;-87
2021/04/30 12:36:12;;;;;;;12.07;10.90;;;12.20;65.60;;;;;;5056507;28;20180;-87
2021/04/30 12:38:43;;;;;;;13.37;10.90;;;12.20;66.60;;;;;;5056423;28;20168;-87